sensor_id;sensor_type;location;lat;lon;timestamp;temperature;humidity
11214;DHT22;5664;48.606;13.456;2022-08-05T00:01:52;21.90;99.90
11214;DHT22;5664;48.606;13.456;2022-08-05T00:04:17;21.90;99.90
11214;DHT22;5664;48.606;13.456;2022-08-05T00:06:43;21.90;99.90
11214;DHT22;5664;48.606;13.456;2022-08-05T00:09:08;21.90;99.90
11214;DHT22;5664;48.606;13.456;2022-08-05T00:11:33;21.90;99.90
11214;DHT22;5664;48.606;13.456;2022-08-05T00:13:59;21.90;99.90
11214;DHT22;5664;48.606;13.456;2022-08-05T00:16:24;21.90;99.90
11214;DHT22;5664;48.606;13.456;2022-08-05T00:18:50;21.90;99.90
11214;DHT22;5664;48.606;13.456;2022-08-05T00:21:16;21.90;99.90
11214;DHT22;5664;48.606;13.456;2022-08-05T00:23:42;21.90;99.90
11214;DHT22;5664;48.606;13.456;2022-08-05T00:26:08;21.90;99.90
11214;DHT22;5664;48.606;13.456;2022-08-05T00:28:34;21.90;99.90
11214;DHT22;5664;48.606;13.456;2022-08-05T00:31:00;21.90;99.90
11214;DHT22;5664;48.606;13.456;2022-08-05T00:33:25;21.90;99.90
11214;DHT22;5664;48.606;13.456;2022-08-05T00:35:51;21.90;99.90
11214;DHT22;5664;48.606;13.456;2022-08-05T00:38:16;21.90;99.90
11214;DHT22;5664;48.606;13.456;2022-08-05T00:40:49;21.90;99.90
11214;DHT22;5664;48.606;13.456;2022-08-05T00:43:15;21.90;99.90
11214;DHT22;5664;48.606;13.456;2022-08-05T00:45:41;21.90;99.90
11214;DHT22;5664;48.606;13.456;2022-08-05T00:48:12;21.90;99.90
11214;DHT22;5664;48.606;13.456;2022-08-05T00:50:38;21.90;99.90
11214;DHT22;5664;48.606;13.456;2022-08-05T00:53:04;21.90;99.90
11214;DHT22;5664;48.606;13.456;2022-08-05T00:55:29;21.90;99.90
11214;DHT22;5664;48.606;13.456;2022-08-05T00:57:55;21.90;99.90
11214;DHT22;5664;48.606;13.456;2022-08-05T01:00:20;21.90;99.90
11214;DHT22;5664;48.606;13.456;2022-08-05T01:02:45;21.80;99.90
11214;DHT22;5664;48.606;13.456;2022-08-05T01:05:11;21.80;99.90
11214;DHT22;5664;48.606;13.456;2022-08-05T01:07:37;21.80;99.90
11214;DHT22;5664;48.606;13.456;2022-08-05T01:10:02;21.80;99.90
11214;DHT22;5664;48.606;13.456;2022-08-05T01:12:28;21.80;99.90
11214;DHT22;5664;48.606;13.456;2022-08-05T01:14:58;21.80;99.90
11214;DHT22;5664;48.606;13.456;2022-08-05T01:19:52;21.80;99.90
11214;DHT22;5664;48.606;13.456;2022-08-05T01:22:31;21.80;99.90
11214;DHT22;5664;48.606;13.456;2022-08-05T01:30:50;21.80;99.90
11214;DHT22;5664;48.606;13.456;2022-08-05T01:33:16;21.80;99.90
11214;DHT22;5664;48.606;13.456;2022-08-05T01:35:43;21.80;99.90
11214;DHT22;5664;48.606;13.456;2022-08-05T01:38:10;21.80;99.90
11214;DHT22;5664;48.606;13.456;2022-08-05T01:40:36;21.80;99.90
11214;DHT22;5664;48.606;13.456;2022-08-05T01:43:03;21.80;99.90
11214;DHT22;5664;48.606;13.456;2022-08-05T01:45:29;21.80;99.90
11214;DHT22;5664;48.606;13.456;2022-08-05T01:47:55;21.80;99.90
11214;DHT22;5664;48.606;13.456;2022-08-05T01:50:25;21.80;99.90
11214;DHT22;5664;48.606;13.456;2022-08-05T01:52:51;21.80;99.90
11214;DHT22;5664;48.606;13.456;2022-08-05T01:55:18;21.80;99.90
11214;DHT22;5664;48.606;13.456;2022-08-05T01:57:44;21.80;99.90
11214;DHT22;5664;48.606;13.456;2022-08-05T02:00:10;21.80;99.90
11214;DHT22;5664;48.606;13.456;2022-08-05T02:02:38;21.80;99.90
11214;DHT22;5664;48.606;13.456;2022-08-05T02:05:06;21.80;99.90
11214;DHT22;5664;48.606;13.456;2022-08-05T02:07:33;21.80;99.90
11214;DHT22;5664;48.606;13.456;2022-08-05T02:09:59;21.80;99.90
11214;DHT22;5664;48.606;13.456;2022-08-05T02:13:00;21.80;99.90
11214;DHT22;5664;48.606;13.456;2022-08-05T02:15:23;21.80;99.90
11214;DHT22;5664;48.606;13.456;2022-08-05T02:17:51;21.80;99.90
11214;DHT22;5664;48.606;13.456;2022-08-05T02:20:23;21.80;99.90
11214;DHT22;5664;48.606;13.456;2022-08-05T02:22:55;21.80;99.90
11214;DHT22;5664;48.606;13.456;2022-08-05T02:25:27;21.80;99.90
11214;DHT22;5664;48.606;13.456;2022-08-05T02:27:54;21.80;99.90
11214;DHT22;5664;48.606;13.456;2022-08-05T02:30:20;21.70;99.90
11214;DHT22;5664;48.606;13.456;2022-08-05T02:32:47;21.70;99.90
11214;DHT22;5664;48.606;13.456;2022-08-05T02:35:15;21.80;99.90
11214;DHT22;5664;48.606;13.456;2022-08-05T02:37:41;21.70;99.90
11214;DHT22;5664;48.606;13.456;2022-08-05T02:40:08;21.70;99.90
11214;DHT22;5664;48.606;13.456;2022-08-05T02:42:34;21.70;99.90
11214;DHT22;5664;48.606;13.456;2022-08-05T02:44:59;21.70;99.90
11214;DHT22;5664;48.606;13.456;2022-08-05T02:47:25;21.70;99.90
11214;DHT22;5664;48.606;13.456;2022-08-05T02:49:51;21.70;99.90
11214;DHT22;5664;48.606;13.456;2022-08-05T02:52:17;21.70;99.90
11214;DHT22;5664;48.606;13.456;2022-08-05T02:54:43;21.70;99.90
11214;DHT22;5664;48.606;13.456;2022-08-05T02:57:10;21.70;99.90
11214;DHT22;5664;48.606;13.456;2022-08-05T02:59:36;21.70;99.80
11214;DHT22;5664;48.606;13.456;2022-08-05T03:02:02;21.70;99.80
11214;DHT22;5664;48.606;13.456;2022-08-05T03:04:28;21.70;99.80
11214;DHT22;5664;48.606;13.456;2022-08-05T03:06:54;21.70;99.80
11214;DHT22;5664;48.606;13.456;2022-08-05T03:09:19;21.70;99.80
11214;DHT22;5664;48.606;13.456;2022-08-05T03:11:45;21.70;99.80
11214;DHT22;5664;48.606;13.456;2022-08-05T03:14:10;21.70;99.80
11214;DHT22;5664;48.606;13.456;2022-08-05T03:16:36;21.70;99.80
11214;DHT22;5664;48.606;13.456;2022-08-05T03:19:02;21.70;99.90
11214;DHT22;5664;48.606;13.456;2022-08-05T03:21:28;21.70;99.80
11214;DHT22;5664;48.606;13.456;2022-08-05T03:23:54;21.70;99.70
11214;DHT22;5664;48.606;13.456;2022-08-05T03:26:20;21.70;99.70
11214;DHT22;5664;48.606;13.456;2022-08-05T03:28:45;21.70;99.60
11214;DHT22;5664;48.606;13.456;2022-08-05T03:31:11;21.60;99.60
11214;DHT22;5664;48.606;13.456;2022-08-05T03:33:37;21.70;99.50
11214;DHT22;5664;48.606;13.456;2022-08-05T03:36:03;21.60;99.50
11214;DHT22;5664;48.606;13.456;2022-08-05T03:38:29;21.60;99.50
11214;DHT22;5664;48.606;13.456;2022-08-05T03:40:54;21.60;99.50
11214;DHT22;5664;48.606;13.456;2022-08-05T03:43:20;21.60;99.70
11214;DHT22;5664;48.606;13.456;2022-08-05T03:45:48;21.60;99.50
11214;DHT22;5664;48.606;13.456;2022-08-05T03:48:14;21.60;99.40
11214;DHT22;5664;48.606;13.456;2022-08-05T03:50:41;21.60;99.40
11214;DHT22;5664;48.606;13.456;2022-08-05T03:53:10;21.60;99.40
11214;DHT22;5664;48.606;13.456;2022-08-05T03:55:38;21.60;99.40
11214;DHT22;5664;48.606;13.456;2022-08-05T03:58:04;21.60;99.40
11214;DHT22;5664;48.606;13.456;2022-08-05T04:00:33;21.60;99.40
11214;DHT22;5664;48.606;13.456;2022-08-05T04:03:00;21.60;99.40
11214;DHT22;5664;48.606;13.456;2022-08-05T04:05:31;21.60;99.30
11214;DHT22;5664;48.606;13.456;2022-08-05T04:07:58;21.60;99.30
11214;DHT22;5664;48.606;13.456;2022-08-05T04:10:27;21.60;99.30
11214;DHT22;5664;48.606;13.456;2022-08-05T04:12:53;21.60;99.30
11214;DHT22;5664;48.606;13.456;2022-08-05T04:15:18;21.60;99.30
11214;DHT22;5664;48.606;13.456;2022-08-05T04:17:44;21.60;99.30
11214;DHT22;5664;48.606;13.456;2022-08-05T04:20:16;21.60;99.30
11214;DHT22;5664;48.606;13.456;2022-08-05T04:22:42;21.60;99.40
11214;DHT22;5664;48.606;13.456;2022-08-05T04:25:07;21.60;99.40
11214;DHT22;5664;48.606;13.456;2022-08-05T04:27:33;21.60;99.40
11214;DHT22;5664;48.606;13.456;2022-08-05T04:29:58;21.60;99.50
11214;DHT22;5664;48.606;13.456;2022-08-05T04:32:24;21.60;99.40
11214;DHT22;5664;48.606;13.456;2022-08-05T04:34:49;21.60;99.40
11214;DHT22;5664;48.606;13.456;2022-08-05T04:37:15;21.60;99.40
11214;DHT22;5664;48.606;13.456;2022-08-05T04:39:40;21.60;99.50
11214;DHT22;5664;48.606;13.456;2022-08-05T04:42:06;21.60;99.50
11214;DHT22;5664;48.606;13.456;2022-08-05T04:44:31;21.60;99.50
11214;DHT22;5664;48.606;13.456;2022-08-05T04:46:57;21.60;99.50
11214;DHT22;5664;48.606;13.456;2022-08-05T04:49:23;21.60;99.60
11214;DHT22;5664;48.606;13.456;2022-08-05T04:51:48;21.60;99.60
11214;DHT22;5664;48.606;13.456;2022-08-05T04:54:14;21.60;99.30
11214;DHT22;5664;48.606;13.456;2022-08-05T04:56:39;21.50;99.30
11214;DHT22;5664;48.606;13.456;2022-08-05T04:59:05;21.50;99.50
11214;DHT22;5664;48.606;13.456;2022-08-05T05:01:30;21.40;99.70
11214;DHT22;5664;48.606;13.456;2022-08-05T05:03:56;21.40;99.90
11214;DHT22;5664;48.606;13.456;2022-08-05T05:06:21;21.40;99.90
11214;DHT22;5664;48.606;13.456;2022-08-05T05:08:47;21.40;99.90
11214;DHT22;5664;48.606;13.456;2022-08-05T05:11:12;21.50;99.90
11214;DHT22;5664;48.606;13.456;2022-08-05T05:13:38;21.50;99.90
11214;DHT22;5664;48.606;13.456;2022-08-05T05:16:03;21.50;99.90
11214;DHT22;5664;48.606;13.456;2022-08-05T05:18:29;21.50;99.90
11214;DHT22;5664;48.606;13.456;2022-08-05T05:20:54;21.50;99.90
11214;DHT22;5664;48.606;13.456;2022-08-05T05:23:20;21.50;99.90
11214;DHT22;5664;48.606;13.456;2022-08-05T05:25:45;21.50;99.90
11214;DHT22;5664;48.606;13.456;2022-08-05T05:28:11;21.50;99.90
11214;DHT22;5664;48.606;13.456;2022-08-05T05:30:37;21.60;99.90
11214;DHT22;5664;48.606;13.456;2022-08-05T05:33:03;21.60;99.90
11214;DHT22;5664;48.606;13.456;2022-08-05T05:35:30;21.60;99.90
11214;DHT22;5664;48.606;13.456;2022-08-05T05:37:56;21.60;99.90
11214;DHT22;5664;48.606;13.456;2022-08-05T05:40:24;21.60;99.90
11214;DHT22;5664;48.606;13.456;2022-08-05T05:42:50;21.60;99.90
11214;DHT22;5664;48.606;13.456;2022-08-05T05:45:16;21.60;99.90
11214;DHT22;5664;48.606;13.456;2022-08-05T05:47:42;21.60;99.90
11214;DHT22;5664;48.606;13.456;2022-08-05T05:50:08;21.60;99.90
11214;DHT22;5664;48.606;13.456;2022-08-05T05:52:33;21.70;99.90
11214;DHT22;5664;48.606;13.456;2022-08-05T05:54:59;21.70;99.90
11214;DHT22;5664;48.606;13.456;2022-08-05T05:57:25;21.80;99.90
11214;DHT22;5664;48.606;13.456;2022-08-05T05:59:51;21.80;99.90
11214;DHT22;5664;48.606;13.456;2022-08-05T06:02:16;21.90;99.90
11214;DHT22;5664;48.606;13.456;2022-08-05T06:04:42;21.90;99.90
11214;DHT22;5664;48.606;13.456;2022-08-05T06:07:07;22.00;99.90
11214;DHT22;5664;48.606;13.456;2022-08-05T06:09:33;22.00;99.90
11214;DHT22;5664;48.606;13.456;2022-08-05T06:11:58;22.00;99.90
11214;DHT22;5664;48.606;13.456;2022-08-05T06:14:23;22.00;99.90
11214;DHT22;5664;48.606;13.456;2022-08-05T06:16:49;22.10;99.90
11214;DHT22;5664;48.606;13.456;2022-08-05T06:19:14;22.10;99.90
11214;DHT22;5664;48.606;13.456;2022-08-05T06:21:40;22.10;99.90
11214;DHT22;5664;48.606;13.456;2022-08-05T06:24:05;22.10;99.90
11214;DHT22;5664;48.606;13.456;2022-08-05T06:26:31;22.20;99.90
11214;DHT22;5664;48.606;13.456;2022-08-05T06:28:57;22.20;99.90
11214;DHT22;5664;48.606;13.456;2022-08-05T06:31:22;22.20;99.90
11214;DHT22;5664;48.606;13.456;2022-08-05T06:33:48;22.30;99.90
11214;DHT22;5664;48.606;13.456;2022-08-05T06:36:13;22.30;99.90
11214;DHT22;5664;48.606;13.456;2022-08-05T06:38:39;22.30;99.90
11214;DHT22;5664;48.606;13.456;2022-08-05T06:41:04;22.30;99.90
11214;DHT22;5664;48.606;13.456;2022-08-05T06:43:30;22.30;99.90
11214;DHT22;5664;48.606;13.456;2022-08-05T06:45:55;22.40;99.90
11214;DHT22;5664;48.606;13.456;2022-08-05T06:48:21;22.40;99.90
11214;DHT22;5664;48.606;13.456;2022-08-05T06:50:46;22.40;99.90
11214;DHT22;5664;48.606;13.456;2022-08-05T06:53:12;22.40;99.90
11214;DHT22;5664;48.606;13.456;2022-08-05T06:55:39;22.40;99.90
11214;DHT22;5664;48.606;13.456;2022-08-05T06:58:05;22.40;99.90
11214;DHT22;5664;48.606;13.456;2022-08-05T07:00:31;22.40;99.90
11214;DHT22;5664;48.606;13.456;2022-08-05T07:02:58;22.40;99.90
11214;DHT22;5664;48.606;13.456;2022-08-05T07:05:23;22.50;99.90
11214;DHT22;5664;48.606;13.456;2022-08-05T07:07:49;22.50;99.90
11214;DHT22;5664;48.606;13.456;2022-08-05T07:10:14;22.50;99.90
11214;DHT22;5664;48.606;13.456;2022-08-05T07:12:40;22.50;99.90
11214;DHT22;5664;48.606;13.456;2022-08-05T07:15:24;22.50;99.90
11214;DHT22;5664;48.606;13.456;2022-08-05T07:18:08;22.50;99.90
11214;DHT22;5664;48.606;13.456;2022-08-05T07:20:34;22.50;99.90
11214;DHT22;5664;48.606;13.456;2022-08-05T07:22:59;22.50;99.90
11214;DHT22;5664;48.606;13.456;2022-08-05T07:25:25;22.50;99.90
11214;DHT22;5664;48.606;13.456;2022-08-05T07:27:52;22.50;99.90
11214;DHT22;5664;48.606;13.456;2022-08-05T07:30:18;22.50;99.90
11214;DHT22;5664;48.606;13.456;2022-08-05T07:32:43;22.60;99.90
11214;DHT22;5664;48.606;13.456;2022-08-05T07:35:09;22.60;99.90
11214;DHT22;5664;48.606;13.456;2022-08-05T07:37:36;22.60;99.90
11214;DHT22;5664;48.606;13.456;2022-08-05T07:40:02;22.60;99.90
11214;DHT22;5664;48.606;13.456;2022-08-05T07:42:27;22.60;99.90
11214;DHT22;5664;48.606;13.456;2022-08-05T07:44:53;22.60;99.90
11214;DHT22;5664;48.606;13.456;2022-08-05T07:47:19;22.60;99.90
11214;DHT22;5664;48.606;13.456;2022-08-05T07:49:45;22.60;99.90
11214;DHT22;5664;48.606;13.456;2022-08-05T07:52:10;22.70;99.90
11214;DHT22;5664;48.606;13.456;2022-08-05T07:54:36;22.70;99.90
11214;DHT22;5664;48.606;13.456;2022-08-05T07:57:02;22.70;99.90
11214;DHT22;5664;48.606;13.456;2022-08-05T07:59:28;22.70;99.90
11214;DHT22;5664;48.606;13.456;2022-08-05T08:01:53;22.70;99.90
11214;DHT22;5664;48.606;13.456;2022-08-05T08:04:19;22.70;99.90
11214;DHT22;5664;48.606;13.456;2022-08-05T08:06:44;22.70;99.90
11214;DHT22;5664;48.606;13.456;2022-08-05T08:09:10;22.80;99.90
11214;DHT22;5664;48.606;13.456;2022-08-05T08:11:35;22.80;99.90
11214;DHT22;5664;48.606;13.456;2022-08-05T08:14:01;22.80;99.90
11214;DHT22;5664;48.606;13.456;2022-08-05T08:16:26;22.80;99.90
11214;DHT22;5664;48.606;13.456;2022-08-05T08:18:52;22.80;99.90
11214;DHT22;5664;48.606;13.456;2022-08-05T08:21:17;22.80;99.90
11214;DHT22;5664;48.606;13.456;2022-08-05T08:23:43;22.80;99.90
11214;DHT22;5664;48.606;13.456;2022-08-05T08:26:08;22.80;99.90
11214;DHT22;5664;48.606;13.456;2022-08-05T08:28:34;22.80;99.90
11214;DHT22;5664;48.606;13.456;2022-08-05T08:31:00;22.80;99.90
11214;DHT22;5664;48.606;13.456;2022-08-05T08:33:25;22.80;99.90
11214;DHT22;5664;48.606;13.456;2022-08-05T08:35:51;22.80;99.90
11214;DHT22;5664;48.606;13.456;2022-08-05T08:38:16;22.90;99.90
11214;DHT22;5664;48.606;13.456;2022-08-05T08:40:42;22.90;99.90
11214;DHT22;5664;48.606;13.456;2022-08-05T08:43:09;22.90;99.90
11214;DHT22;5664;48.606;13.456;2022-08-05T08:45:36;22.90;99.90
11214;DHT22;5664;48.606;13.456;2022-08-05T08:48:02;22.90;99.90
11214;DHT22;5664;48.606;13.456;2022-08-05T08:50:30;22.90;99.90
11214;DHT22;5664;48.606;13.456;2022-08-05T08:52:59;22.90;99.90
11214;DHT22;5664;48.606;13.456;2022-08-05T08:55:25;22.90;99.90
11214;DHT22;5664;48.606;13.456;2022-08-05T08:57:50;22.90;99.90
11214;DHT22;5664;48.606;13.456;2022-08-05T09:00:16;22.90;99.90
11214;DHT22;5664;48.606;13.456;2022-08-05T09:02:43;22.80;99.90
11214;DHT22;5664;48.606;13.456;2022-08-05T09:05:09;22.80;99.90
11214;DHT22;5664;48.606;13.456;2022-08-05T09:07:35;22.80;99.90
11214;DHT22;5664;48.606;13.456;2022-08-05T09:10:00;22.80;99.90
11214;DHT22;5664;48.606;13.456;2022-08-05T09:12:26;22.80;99.90
11214;DHT22;5664;48.606;13.456;2022-08-05T09:14:51;22.80;99.90
11214;DHT22;5664;48.606;13.456;2022-08-05T09:17:17;22.70;99.90
11214;DHT22;5664;48.606;13.456;2022-08-05T09:19:43;22.70;99.90
11214;DHT22;5664;48.606;13.456;2022-08-05T09:22:08;22.70;99.90
11214;DHT22;5664;48.606;13.456;2022-08-05T09:24:34;22.70;99.90
11214;DHT22;5664;48.606;13.456;2022-08-05T09:27:00;22.70;99.90
11214;DHT22;5664;48.606;13.456;2022-08-05T09:29:47;22.70;99.90
11214;DHT22;5664;48.606;13.456;2022-08-05T09:32:12;22.70;99.90
11214;DHT22;5664;48.606;13.456;2022-08-05T09:37:33;22.70;99.90
11214;DHT22;5664;48.606;13.456;2022-08-05T09:39:58;22.60;99.90
11214;DHT22;5664;48.606;13.456;2022-08-05T09:42:24;22.60;99.90
11214;DHT22;5664;48.606;13.456;2022-08-05T09:44:51;22.60;99.90
11214;DHT22;5664;48.606;13.456;2022-08-05T09:47:20;22.60;99.90
11214;DHT22;5664;48.606;13.456;2022-08-05T09:52:15;22.60;99.90
11214;DHT22;5664;48.606;13.456;2022-08-05T09:54:50;22.60;99.90
11214;DHT22;5664;48.606;13.456;2022-08-05T09:57:37;22.60;99.90
11214;DHT22;5664;48.606;13.456;2022-08-05T10:00:11;22.60;99.90
11214;DHT22;5664;48.606;13.456;2022-08-05T10:02:44;22.60;99.90
11214;DHT22;5664;48.606;13.456;2022-08-05T10:05:14;22.60;99.90
11214;DHT22;5664;48.606;13.456;2022-08-05T10:07:48;22.60;99.90
11214;DHT22;5664;48.606;13.456;2022-08-05T10:10:14;22.60;99.90
11214;DHT22;5664;48.606;13.456;2022-08-05T10:12:44;22.60;99.90
11214;DHT22;5664;48.606;13.456;2022-08-05T10:15:14;22.60;99.90
11214;DHT22;5664;48.606;13.456;2022-08-05T10:17:40;22.60;99.90
11214;DHT22;5664;48.606;13.456;2022-08-05T10:20:06;22.60;99.90
11214;DHT22;5664;48.606;13.456;2022-08-05T10:22:31;22.60;99.90
11214;DHT22;5664;48.606;13.456;2022-08-05T10:24:57;22.60;99.90
11214;DHT22;5664;48.606;13.456;2022-08-05T10:27:23;22.60;99.90
11214;DHT22;5664;48.606;13.456;2022-08-05T10:29:49;22.60;99.90
11214;DHT22;5664;48.606;13.456;2022-08-05T10:32:14;22.60;99.90
11214;DHT22;5664;48.606;13.456;2022-08-05T10:34:40;22.60;99.90
11214;DHT22;5664;48.606;13.456;2022-08-05T10:37:06;22.60;99.90
11214;DHT22;5664;48.606;13.456;2022-08-05T10:39:32;22.60;99.90
11214;DHT22;5664;48.606;13.456;2022-08-05T10:42:12;22.60;99.90
11214;DHT22;5664;48.606;13.456;2022-08-05T10:44:43;22.60;99.90
11214;DHT22;5664;48.606;13.456;2022-08-05T10:47:10;22.60;99.90
11214;DHT22;5664;48.606;13.456;2022-08-05T10:49:37;22.60;99.90
11214;DHT22;5664;48.606;13.456;2022-08-05T10:55:06;22.60;99.90
11214;DHT22;5664;48.606;13.456;2022-08-05T10:57:32;22.60;99.90
11214;DHT22;5664;48.606;13.456;2022-08-05T11:00:14;22.60;99.90
11214;DHT22;5664;48.606;13.456;2022-08-05T11:05:27;22.50;99.90
11214;DHT22;5664;48.606;13.456;2022-08-05T11:07:56;22.50;99.90
11214;DHT22;5664;48.606;13.456;2022-08-05T11:10:23;22.50;99.90
11214;DHT22;5664;48.606;13.456;2022-08-05T11:12:49;22.50;99.90
11214;DHT22;5664;48.606;13.456;2022-08-05T11:17:41;22.50;99.90
11214;DHT22;5664;48.606;13.456;2022-08-05T11:20:07;22.50;99.90
11214;DHT22;5664;48.606;13.456;2022-08-05T11:22:52;22.50;99.90
11214;DHT22;5664;48.606;13.456;2022-08-05T11:27:55;22.50;99.90
11214;DHT22;5664;48.606;13.456;2022-08-05T11:30:21;22.50;99.90
11214;DHT22;5664;48.606;13.456;2022-08-05T11:32:46;22.50;99.90
11214;DHT22;5664;48.606;13.456;2022-08-05T11:40:48;22.50;99.90
11214;DHT22;5664;48.606;13.456;2022-08-05T11:43:07;22.50;99.90
11214;DHT22;5664;48.606;13.456;2022-08-05T11:45:44;22.50;99.90
11214;DHT22;5664;48.606;13.456;2022-08-05T11:48:10;22.50;99.90
11214;DHT22;5664;48.606;13.456;2022-08-05T11:50:38;22.50;99.90
11214;DHT22;5664;48.606;13.456;2022-08-05T11:53:04;22.50;99.90
11214;DHT22;5664;48.606;13.456;2022-08-05T11:55:30;22.50;99.90
11214;DHT22;5664;48.606;13.456;2022-08-05T11:57:55;22.50;99.90
11214;DHT22;5664;48.606;13.456;2022-08-05T12:00:27;22.50;99.90
11214;DHT22;5664;48.606;13.456;2022-08-05T12:02:53;22.50;99.90
11214;DHT22;5664;48.606;13.456;2022-08-05T12:05:25;22.50;99.90
11214;DHT22;5664;48.606;13.456;2022-08-05T12:07:51;22.50;99.90
11214;DHT22;5664;48.606;13.456;2022-08-05T12:10:17;22.50;99.90
11214;DHT22;5664;48.606;13.456;2022-08-05T12:12:43;22.50;99.90
11214;DHT22;5664;48.606;13.456;2022-08-05T12:15:21;22.50;99.90
11214;DHT22;5664;48.606;13.456;2022-08-05T12:17:46;22.50;99.90
11214;DHT22;5664;48.606;13.456;2022-08-05T12:20:12;22.50;99.90
11214;DHT22;5664;48.606;13.456;2022-08-05T12:22:38;22.50;99.90
11214;DHT22;5664;48.606;13.456;2022-08-05T12:25:04;22.50;99.90
11214;DHT22;5664;48.606;13.456;2022-08-05T12:27:30;22.50;99.90
11214;DHT22;5664;48.606;13.456;2022-08-05T12:32:30;22.60;99.90
11214;DHT22;5664;48.606;13.456;2022-08-05T12:34:55;22.60;99.90
11214;DHT22;5664;48.606;13.456;2022-08-05T12:37:21;22.60;99.90
11214;DHT22;5664;48.606;13.456;2022-08-05T12:39:48;22.60;99.90
11214;DHT22;5664;48.606;13.456;2022-08-05T12:42:18;22.60;99.90
11214;DHT22;5664;48.606;13.456;2022-08-05T12:44:44;22.60;99.90
11214;DHT22;5664;48.606;13.456;2022-08-05T12:47:10;22.60;99.90
11214;DHT22;5664;48.606;13.456;2022-08-05T12:49:43;22.60;99.90
11214;DHT22;5664;48.606;13.456;2022-08-05T12:52:18;22.60;99.90
11214;DHT22;5664;48.606;13.456;2022-08-05T12:54:44;22.60;99.90
11214;DHT22;5664;48.606;13.456;2022-08-05T12:57:10;22.60;99.90
11214;DHT22;5664;48.606;13.456;2022-08-05T13:02:09;22.60;99.90
11214;DHT22;5664;48.606;13.456;2022-08-05T13:04:39;22.60;99.90
11214;DHT22;5664;48.606;13.456;2022-08-05T13:07:08;23.00;99.90
11214;DHT22;5664;48.606;13.456;2022-08-05T13:09:37;22.60;99.90
11214;DHT22;5664;48.606;13.456;2022-08-05T13:12:04;22.60;99.90
11214;DHT22;5664;48.606;13.456;2022-08-05T13:14:34;22.60;99.90
11214;DHT22;5664;48.606;13.456;2022-08-05T13:17:00;22.60;99.90
11214;DHT22;5664;48.606;13.456;2022-08-05T13:19:26;22.60;99.90
11214;DHT22;5664;48.606;13.456;2022-08-05T13:21:53;22.60;99.90
11214;DHT22;5664;48.606;13.456;2022-08-05T13:24:19;22.60;99.90
11214;DHT22;5664;48.606;13.456;2022-08-05T13:26:45;22.60;99.90
11214;DHT22;5664;48.606;13.456;2022-08-05T13:29:11;22.60;99.90
11214;DHT22;5664;48.606;13.456;2022-08-05T13:31:37;22.60;99.90
11214;DHT22;5664;48.606;13.456;2022-08-05T13:34:02;22.60;99.90
11214;DHT22;5664;48.606;13.456;2022-08-05T13:36:28;22.60;99.90
11214;DHT22;5664;48.606;13.456;2022-08-05T13:38:53;22.60;99.90
11214;DHT22;5664;48.606;13.456;2022-08-05T13:41:18;22.60;99.90
11214;DHT22;5664;48.606;13.456;2022-08-05T13:43:44;22.60;99.90
11214;DHT22;5664;48.606;13.456;2022-08-05T13:46:10;22.60;99.90
11214;DHT22;5664;48.606;13.456;2022-08-05T13:48:36;22.60;99.90
11214;DHT22;5664;48.606;13.456;2022-08-05T13:51:07;22.60;99.90
11214;DHT22;5664;48.606;13.456;2022-08-05T13:53:33;22.60;99.90
11214;DHT22;5664;48.606;13.456;2022-08-05T13:55:59;22.50;99.90
11214;DHT22;5664;48.606;13.456;2022-08-05T13:58:25;22.50;99.90
11214;DHT22;5664;48.606;13.456;2022-08-05T14:00:50;22.60;99.90
11214;DHT22;5664;48.606;13.456;2022-08-05T14:03:16;22.60;99.90
11214;DHT22;5664;48.606;13.456;2022-08-05T14:05:41;22.50;99.90
11214;DHT22;5664;48.606;13.456;2022-08-05T14:08:07;22.60;99.90
11214;DHT22;5664;48.606;13.456;2022-08-05T14:10:32;22.50;99.90
11214;DHT22;5664;48.606;13.456;2022-08-05T14:12:59;22.50;99.90
11214;DHT22;5664;48.606;13.456;2022-08-05T14:15:25;22.50;99.90
11214;DHT22;5664;48.606;13.456;2022-08-05T14:17:51;22.50;99.90
11214;DHT22;5664;48.606;13.456;2022-08-05T14:20:16;22.50;99.90
11214;DHT22;5664;48.606;13.456;2022-08-05T14:22:42;22.50;99.90
11214;DHT22;5664;48.606;13.456;2022-08-05T14:25:08;22.50;99.90
11214;DHT22;5664;48.606;13.456;2022-08-05T14:27:34;22.50;99.90
11214;DHT22;5664;48.606;13.456;2022-08-05T14:30:00;22.50;99.90
11214;DHT22;5664;48.606;13.456;2022-08-05T14:32:25;22.60;99.90
11214;DHT22;5664;48.606;13.456;2022-08-05T14:34:51;22.60;99.90
11214;DHT22;5664;48.606;13.456;2022-08-05T14:37:16;22.50;99.90
11214;DHT22;5664;48.606;13.456;2022-08-05T14:39:41;22.50;99.90
11214;DHT22;5664;48.606;13.456;2022-08-05T14:42:07;22.50;99.90
11214;DHT22;5664;48.606;13.456;2022-08-05T14:44:33;22.50;99.90
11214;DHT22;5664;48.606;13.456;2022-08-05T14:46:59;22.50;99.90
11214;DHT22;5664;48.606;13.456;2022-08-05T14:49:24;22.50;99.90
11214;DHT22;5664;48.606;13.456;2022-08-05T14:51:50;22.50;99.90
11214;DHT22;5664;48.606;13.456;2022-08-05T14:54:15;22.50;99.90
11214;DHT22;5664;48.606;13.456;2022-08-05T14:56:40;22.50;99.90
11214;DHT22;5664;48.606;13.456;2022-08-05T14:59:06;22.50;99.90
11214;DHT22;5664;48.606;13.456;2022-08-05T15:01:31;22.50;99.90
11214;DHT22;5664;48.606;13.456;2022-08-05T15:03:57;22.50;99.90
11214;DHT22;5664;48.606;13.456;2022-08-05T15:06:23;22.50;99.90
11214;DHT22;5664;48.606;13.456;2022-08-05T15:08:48;22.50;99.90
11214;DHT22;5664;48.606;13.456;2022-08-05T15:11:14;22.50;99.90
11214;DHT22;5664;48.606;13.456;2022-08-05T15:13:40;22.50;99.90
11214;DHT22;5664;48.606;13.456;2022-08-05T15:16:05;22.50;99.90
11214;DHT22;5664;48.606;13.456;2022-08-05T15:18:31;22.50;99.90
11214;DHT22;5664;48.606;13.456;2022-08-05T15:20:58;22.50;99.90
11214;DHT22;5664;48.606;13.456;2022-08-05T15:23:23;22.50;99.90
11214;DHT22;5664;48.606;13.456;2022-08-05T15:25:49;22.50;99.90
11214;DHT22;5664;48.606;13.456;2022-08-05T15:28:14;22.50;99.90
11214;DHT22;5664;48.606;13.456;2022-08-05T15:30:40;22.50;99.90
11214;DHT22;5664;48.606;13.456;2022-08-05T15:33:06;22.50;99.90
11214;DHT22;5664;48.606;13.456;2022-08-05T15:35:31;22.50;99.90
11214;DHT22;5664;48.606;13.456;2022-08-05T15:37:57;22.50;99.90
11214;DHT22;5664;48.606;13.456;2022-08-05T15:40:23;22.50;99.90
11214;DHT22;5664;48.606;13.456;2022-08-05T15:42:48;22.50;99.90
11214;DHT22;5664;48.606;13.456;2022-08-05T15:45:14;22.50;99.90
11214;DHT22;5664;48.606;13.456;2022-08-05T15:47:40;22.50;99.90
11214;DHT22;5664;48.606;13.456;2022-08-05T15:50:06;22.50;99.90
11214;DHT22;5664;48.606;13.456;2022-08-05T15:52:32;22.50;99.90
11214;DHT22;5664;48.606;13.456;2022-08-05T15:54:58;22.50;99.90
11214;DHT22;5664;48.606;13.456;2022-08-05T15:57:23;22.50;99.90
11214;DHT22;5664;48.606;13.456;2022-08-05T15:59:49;22.50;99.90
11214;DHT22;5664;48.606;13.456;2022-08-05T16:02:14;22.50;99.90